sensor_id;sensor_type;location;lat;lon;timestamp;P1;P2;P0
36513;PMS5003;66331;46.796;9.824;2023-02-15T00:00:16;3;3;
36513;PMS5003;66331;46.796;9.824;2023-02-15T00:02:43;7;7;
36513;PMS5003;66331;46.796;9.824;2023-02-15T00:05:10;5;5;
36513;PMS5003;66331;46.796;9.824;2023-02-15T00:07:43;5;3;
36513;PMS5003;66331;46.796;9.824;2023-02-15T00:10:10;3;2;
36513;PMS5003;66331;46.796;9.824;2023-02-15T00:12:37;6;5;
36513;PMS5003;66331;46.796;9.824;2023-02-15T00:15:04;5;5;
36513;PMS5003;66331;46.796;9.824;2023-02-15T00:17:31;6;3;
36513;PMS5003;66331;46.796;9.824;2023-02-15T00:20:09;5;3;
36513;PMS5003;66331;46.796;9.824;2023-02-15T00:22:52;5;3;
36513;PMS5003;66331;46.796;9.824;2023-02-15T00:25:24;6;3;
36513;PMS5003;66331;46.796;9.824;2023-02-15T00:27:52;2;2;
36513;PMS5003;66331;46.796;9.824;2023-02-15T00:30:24;2;2;
36513;PMS5003;66331;46.796;9.824;2023-02-15T00:32:51;1;1;
36513;PMS5003;66331;46.796;9.824;2023-02-15T00:35:18;1;1;
36513;PMS5003;66331;46.796;9.824;2023-02-15T00:37:45;3;3;
36513;PMS5003;66331;46.796;9.824;2023-02-15T00:40:17;3;2;
36513;PMS5003;66331;46.796;9.824;2023-02-15T00:42:50;3;3;
36513;PMS5003;66331;46.796;9.824;2023-02-15T00:45:17;5;5;
36513;PMS5003;66331;46.796;9.824;2023-02-15T00:47:45;5;3;
36513;PMS5003;66331;46.796;9.824;2023-02-15T00:50:13;1;1;
36513;PMS5003;66331;46.796;9.824;2023-02-15T00:52:40;2;2;
36513;PMS5003;66331;46.796;9.824;2023-02-15T00:55:07;3;2;
36513;PMS5003;66331;46.796;9.824;2023-02-15T00:57:34;3;2;
36513;PMS5003;66331;46.796;9.824;2023-02-15T01:00:03;3;2;
36513;PMS5003;66331;46.796;9.824;2023-02-15T01:02:31;2;2;
36513;PMS5003;66331;46.796;9.824;2023-02-15T01:05:02;3;3;
36513;PMS5003;66331;46.796;9.824;2023-02-15T01:07:30;1;1;
36513;PMS5003;66331;46.796;9.824;2023-02-15T01:09:58;2;2;
36513;PMS5003;66331;46.796;9.824;2023-02-15T01:12:36;5;3;
36513;PMS5003;66331;46.796;9.824;2023-02-15T01:15:09;5;5;
36513;PMS5003;66331;46.796;9.824;2023-02-15T01:17:45;6;5;
36513;PMS5003;66331;46.796;9.824;2023-02-15T01:20:24;2;2;
36513;PMS5003;66331;46.796;9.824;2023-02-15T01:22:56;1;1;
36513;PMS5003;66331;46.796;9.824;2023-02-15T01:25:28;1;1;
36513;PMS5003;66331;46.796;9.824;2023-02-15T01:27:56;3;2;
36513;PMS5003;66331;46.796;9.824;2023-02-15T01:30:24;2;1;
36513;PMS5003;66331;46.796;9.824;2023-02-15T01:32:52;1;1;
36513;PMS5003;66331;46.796;9.824;2023-02-15T01:35:24;1;1;
36513;PMS5003;66331;46.796;9.824;2023-02-15T01:37:52;6;3;
36513;PMS5003;66331;46.796;9.824;2023-02-15T01:40:20;5;3;
36513;PMS5003;66331;46.796;9.824;2023-02-15T01:42:58;2;2;
36513;PMS5003;66331;46.796;9.824;2023-02-15T01:45:32;2;2;
36513;PMS5003;66331;46.796;9.824;2023-02-15T01:48:03;2;2;
36513;PMS5003;66331;46.796;9.824;2023-02-15T01:50:44;2;2;
36513;PMS5003;66331;46.796;9.824;2023-02-15T01:53:18;5;5;
36513;PMS5003;66331;46.796;9.824;2023-02-15T01:55:53;3;3;
36513;PMS5003;66331;46.796;9.824;2023-02-15T01:58:24;5;3;
36513;PMS5003;66331;46.796;9.824;2023-02-15T02:01:04;2;2;
36513;PMS5003;66331;46.796;9.824;2023-02-15T02:03:53;2;2;
36513;PMS5003;66331;46.796;9.824;2023-02-15T02:06:42;3;3;
36513;PMS5003;66331;46.796;9.824;2023-02-15T02:09:13;2;2;
36513;PMS5003;66331;46.796;9.824;2023-02-15T02:11:42;3;3;
36513;PMS5003;66331;46.796;9.824;2023-02-15T02:14:13;3;3;
36513;PMS5003;66331;46.796;9.824;2023-02-15T02:16:42;2;2;
36513;PMS5003;66331;46.796;9.824;2023-02-15T02:19:26;1;1;
36513;PMS5003;66331;46.796;9.824;2023-02-15T02:22:20;2;2;
36513;PMS5003;66331;46.796;9.824;2023-02-15T02:25:12;2;2;
36513;PMS5003;66331;46.796;9.824;2023-02-15T02:27:59;3;1;
36513;PMS5003;66331;46.796;9.824;2023-02-15T02:30:47;5;2;
36513;PMS5003;66331;46.796;9.824;2023-02-15T02:33:27;2;1;
36513;PMS5003;66331;46.796;9.824;2023-02-15T02:36:08;3;2;
36513;PMS5003;66331;46.796;9.824;2023-02-15T02:38:51;2;2;
36513;PMS5003;66331;46.796;9.824;2023-02-15T02:41:31;3;2;
36513;PMS5003;66331;46.796;9.824;2023-02-15T02:44:07;2;2;
36513;PMS5003;66331;46.796;9.824;2023-02-15T02:46:42;3;2;
36513;PMS5003;66331;46.796;9.824;2023-02-15T02:49:16;1;1;
36513;PMS5003;66331;46.796;9.824;2023-02-15T02:51:57;5;5;
36513;PMS5003;66331;46.796;9.824;2023-02-15T02:54:27;2;2;
36513;PMS5003;66331;46.796;9.824;2023-02-15T02:56:55;2;1;
36513;PMS5003;66331;46.796;9.824;2023-02-15T02:59:28;2;2;
36513;PMS5003;66331;46.796;9.824;2023-02-15T03:02:04;2;2;
36513;PMS5003;66331;46.796;9.824;2023-02-15T03:04:36;2;1;
36513;PMS5003;66331;46.796;9.824;2023-02-15T03:07:09;3;3;
36513;PMS5003;66331;46.796;9.824;2023-02-15T03:09:42;3;2;
36513;PMS5003;66331;46.796;9.824;2023-02-15T03:12:13;1;1;
36513;PMS5003;66331;46.796;9.824;2023-02-15T03:14:44;0;0;
36513;PMS5003;66331;46.796;9.824;2023-02-15T03:17:17;2;2;
36513;PMS5003;66331;46.796;9.824;2023-02-15T03:19:49;2;2;
36513;PMS5003;66331;46.796;9.824;2023-02-15T03:22:21;2;2;
36513;PMS5003;66331;46.796;9.824;2023-02-15T03:24:53;3;3;
36513;PMS5003;66331;46.796;9.824;2023-02-15T03:27:27;5;5;
36513;PMS5003;66331;46.796;9.824;2023-02-15T03:29:58;6;6;
36513;PMS5003;66331;46.796;9.824;2023-02-15T03:32:28;6;5;
36513;PMS5003;66331;46.796;9.824;2023-02-15T03:34:57;2;2;
36513;PMS5003;66331;46.796;9.824;2023-02-15T03:37:25;3;3;
36513;PMS5003;66331;46.796;9.824;2023-02-15T03:39:59;5;3;
36513;PMS5003;66331;46.796;9.824;2023-02-15T03:42:31;3;3;
36513;PMS5003;66331;46.796;9.824;2023-02-15T03:45:01;3;3;
36513;PMS5003;66331;46.796;9.824;2023-02-15T03:47:34;3;3;
36513;PMS5003;66331;46.796;9.824;2023-02-15T03:50:05;3;3;
36513;PMS5003;66331;46.796;9.824;2023-02-15T03:52:36;5;5;
36513;PMS5003;66331;46.796;9.824;2023-02-15T03:55:04;3;2;
36513;PMS5003;66331;46.796;9.824;2023-02-15T03:57:32;3;2;
36513;PMS5003;66331;46.796;9.824;2023-02-15T04:00:04;5;5;
36513;PMS5003;66331;46.796;9.824;2023-02-15T04:02:37;6;3;
36513;PMS5003;66331;46.796;9.824;2023-02-15T04:05:08;6;5;
36513;PMS5003;66331;46.796;9.824;2023-02-15T04:07:36;3;3;
36513;PMS5003;66331;46.796;9.824;2023-02-15T04:10:03;3;3;
36513;PMS5003;66331;46.796;9.824;2023-02-15T04:12:31;2;2;
36513;PMS5003;66331;46.796;9.824;2023-02-15T04:14:58;3;3;
36513;PMS5003;66331;46.796;9.824;2023-02-15T04:17:25;5;3;
36513;PMS5003;66331;46.796;9.824;2023-02-15T04:19:52;3;3;
36513;PMS5003;66331;46.796;9.824;2023-02-15T04:22:19;2;2;
36513;PMS5003;66331;46.796;9.824;2023-02-15T04:24:47;2;2;
36513;PMS5003;66331;46.796;9.824;2023-02-15T04:27:14;2;2;
36513;PMS5003;66331;46.796;9.824;2023-02-15T04:29:41;2;2;
36513;PMS5003;66331;46.796;9.824;2023-02-15T04:32:08;1;1;
36513;PMS5003;66331;46.796;9.824;2023-02-15T04:34:35;3;3;
36513;PMS5003;66331;46.796;9.824;2023-02-15T04:37:02;2;1;
36513;PMS5003;66331;46.796;9.824;2023-02-15T04:39:30;1;1;
36513;PMS5003;66331;46.796;9.824;2023-02-15T04:41:57;4;4;
36513;PMS5003;66331;46.796;9.824;2023-02-15T04:44:25;3;3;
36513;PMS5003;66331;46.796;9.824;2023-02-15T04:46:52;3;3;
36513;PMS5003;66331;46.796;9.824;2023-02-15T04:49:19;3;2;
36513;PMS5003;66331;46.796;9.824;2023-02-15T04:51:46;3;3;
36513;PMS5003;66331;46.796;9.824;2023-02-15T04:54:13;3;3;
36513;PMS5003;66331;46.796;9.824;2023-02-15T04:56:41;2;2;
36513;PMS5003;66331;46.796;9.824;2023-02-15T04:59:09;2;2;
36513;PMS5003;66331;46.796;9.824;2023-02-15T05:01:37;2;2;
36513;PMS5003;66331;46.796;9.824;2023-02-15T05:04:05;3;2;
36513;PMS5003;66331;46.796;9.824;2023-02-15T05:06:32;3;2;
36513;PMS5003;66331;46.796;9.824;2023-02-15T05:08:59;2;1;
36513;PMS5003;66331;46.796;9.824;2023-02-15T05:11:26;1;1;
36513;PMS5003;66331;46.796;9.824;2023-02-15T05:13:53;5;3;
36513;PMS5003;66331;46.796;9.824;2023-02-15T05:16:21;2;1;
36513;PMS5003;66331;46.796;9.824;2023-02-15T05:18:48;2;2;
36513;PMS5003;66331;46.796;9.824;2023-02-15T05:21:15;2;2;
36513;PMS5003;66331;46.796;9.824;2023-02-15T05:23:42;1;1;
36513;PMS5003;66331;46.796;9.824;2023-02-15T05:26:09;3;2;
36513;PMS5003;66331;46.796;9.824;2023-02-15T05:28:37;5;5;
36513;PMS5003;66331;46.796;9.824;2023-02-15T05:31:06;6;6;
36513;PMS5003;66331;46.796;9.824;2023-02-15T05:33:34;3;3;
36513;PMS5003;66331;46.796;9.824;2023-02-15T05:36:02;5;5;
36513;PMS5003;66331;46.796;9.824;2023-02-15T05:38:30;6;3;
36513;PMS5003;66331;46.796;9.824;2023-02-15T05:40:57;7;7;
36513;PMS5003;66331;46.796;9.824;2023-02-15T05:43:25;10;5;
36513;PMS5003;66331;46.796;9.824;2023-02-15T05:45:53;5;5;
36513;PMS5003;66331;46.796;9.824;2023-02-15T05:48:22;7;7;
36513;PMS5003;66331;46.796;9.824;2023-02-15T05:50:56;8;8;
36513;PMS5003;66331;46.796;9.824;2023-02-15T05:53:25;9;6;
36513;PMS5003;66331;46.796;9.824;2023-02-15T05:55:53;6;6;
36513;PMS5003;66331;46.796;9.824;2023-02-15T05:58:21;7;7;
36513;PMS5003;66331;46.796;9.824;2023-02-15T06:00:47;8;8;
36513;PMS5003;66331;46.796;9.824;2023-02-15T06:03:15;6;6;
36513;PMS5003;66331;46.796;9.824;2023-02-15T06:05:42;7;7;
36513;PMS5003;66331;46.796;9.824;2023-02-15T06:08:09;6;5;
36513;PMS5003;66331;46.796;9.824;2023-02-15T06:10:36;6;6;
36513;PMS5003;66331;46.796;9.824;2023-02-15T06:13:03;8;6;
36513;PMS5003;66331;46.796;9.824;2023-02-15T06:15:30;7;6;
36513;PMS5003;66331;46.796;9.824;2023-02-15T06:17:58;12;8;
36513;PMS5003;66331;46.796;9.824;2023-02-15T06:20:25;9;8;
36513;PMS5003;66331;46.796;9.824;2023-02-15T06:22:52;6;6;
36513;PMS5003;66331;46.796;9.824;2023-02-15T06:25:19;6;5;
36513;PMS5003;66331;46.796;9.824;2023-02-15T06:27:47;10;7;
36513;PMS5003;66331;46.796;9.824;2023-02-15T06:30:14;7;6;
36513;PMS5003;66331;46.796;9.824;2023-02-15T06:32:41;5;5;
36513;PMS5003;66331;46.796;9.824;2023-02-15T06:35:08;6;6;
36513;PMS5003;66331;46.796;9.824;2023-02-15T06:37:36;10;9;
36513;PMS5003;66331;46.796;9.824;2023-02-15T06:40:04;9;9;
36513;PMS5003;66331;46.796;9.824;2023-02-15T06:42:32;6;6;
36513;PMS5003;66331;46.796;9.824;2023-02-15T06:44:59;5;5;
36513;PMS5003;66331;46.796;9.824;2023-02-15T06:47:26;5;3;
36513;PMS5003;66331;46.796;9.824;2023-02-15T06:49:54;3;3;
36513;PMS5003;66331;46.796;9.824;2023-02-15T06:52:21;7;6;
36513;PMS5003;66331;46.796;9.824;2023-02-15T06:54:49;5;5;
36513;PMS5003;66331;46.796;9.824;2023-02-15T06:57:16;9;7;
36513;PMS5003;66331;46.796;9.824;2023-02-15T06:59:43;5;5;
36513;PMS5003;66331;46.796;9.824;2023-02-15T07:02:11;9;7;
36513;PMS5003;66331;46.796;9.824;2023-02-15T07:04:38;6;6;
36513;PMS5003;66331;46.796;9.824;2023-02-15T07:07:08;6;6;
36513;PMS5003;66331;46.796;9.824;2023-02-15T07:09:37;9;6;
36513;PMS5003;66331;46.796;9.824;2023-02-15T07:12:04;7;6;
36513;PMS5003;66331;46.796;9.824;2023-02-15T07:14:32;7;7;
36513;PMS5003;66331;46.796;9.824;2023-02-15T07:16:59;8;6;
36513;PMS5003;66331;46.796;9.824;2023-02-15T07:19:28;6;5;
36513;PMS5003;66331;46.796;9.824;2023-02-15T07:21:55;9;7;
36513;PMS5003;66331;46.796;9.824;2023-02-15T07:24:23;7;6;
36513;PMS5003;66331;46.796;9.824;2023-02-15T07:27:01;13;9;
36513;PMS5003;66331;46.796;9.824;2023-02-15T07:29:29;10;10;
36513;PMS5003;66331;46.796;9.824;2023-02-15T07:31:56;10;6;
36513;PMS5003;66331;46.796;9.824;2023-02-15T07:34:24;14;11;
36513;PMS5003;66331;46.796;9.824;2023-02-15T07:36:52;11;11;
36513;PMS5003;66331;46.796;9.824;2023-02-15T07:39:19;10;9;
36513;PMS5003;66331;46.796;9.824;2023-02-15T07:41:46;10;10;
36513;PMS5003;66331;46.796;9.824;2023-02-15T07:44:14;13;10;
36513;PMS5003;66331;46.796;9.824;2023-02-15T07:46:41;5;5;
36513;PMS5003;66331;46.796;9.824;2023-02-15T07:49:08;9;9;
36513;PMS5003;66331;46.796;9.824;2023-02-15T07:51:35;10;9;
36513;PMS5003;66331;46.796;9.824;2023-02-15T07:54:03;10;10;
36513;PMS5003;66331;46.796;9.824;2023-02-15T07:56:31;10;10;
36513;PMS5003;66331;46.796;9.824;2023-02-15T07:58:58;10;10;
36513;PMS5003;66331;46.796;9.824;2023-02-15T08:01:33;13;11;
36513;PMS5003;66331;46.796;9.824;2023-02-15T08:04:02;10;9;
36513;PMS5003;66331;46.796;9.824;2023-02-15T08:06:34;11;7;
36513;PMS5003;66331;46.796;9.824;2023-02-15T08:09:07;11;10;
36513;PMS5003;66331;46.796;9.824;2023-02-15T08:11:36;10;10;
36513;PMS5003;66331;46.796;9.824;2023-02-15T08:14:05;13;10;
36513;PMS5003;66331;46.796;9.824;2023-02-15T08:16:34;9;7;
36513;PMS5003;66331;46.796;9.824;2023-02-15T08:19:03;9;9;
36513;PMS5003;66331;46.796;9.824;2023-02-15T08:21:32;11;10;
36513;PMS5003;66331;46.796;9.824;2023-02-15T08:24:01;14;11;
36513;PMS5003;66331;46.796;9.824;2023-02-15T08:26:29;10;10;
36513;PMS5003;66331;46.796;9.824;2023-02-15T08:28:57;10;10;
36513;PMS5003;66331;46.796;9.824;2023-02-15T08:31:29;11;11;
36513;PMS5003;66331;46.796;9.824;2023-02-15T08:33:57;9;9;
36513;PMS5003;66331;46.796;9.824;2023-02-15T08:36:24;11;11;
36513;PMS5003;66331;46.796;9.824;2023-02-15T08:38:54;15;11;
36513;PMS5003;66331;46.796;9.824;2023-02-15T08:41:25;12;11;
36513;PMS5003;66331;46.796;9.824;2023-02-15T08:44:00;11;11;
36513;PMS5003;66331;46.796;9.824;2023-02-15T08:46:29;11;10;
36513;PMS5003;66331;46.796;9.824;2023-02-15T08:48:59;13;10;
36513;PMS5003;66331;46.796;9.824;2023-02-15T08:51:27;11;10;
36513;PMS5003;66331;46.796;9.824;2023-02-15T08:53:57;12;11;
36513;PMS5003;66331;46.796;9.824;2023-02-15T08:56:27;8;8;
36513;PMS5003;66331;46.796;9.824;2023-02-15T08:58:57;10;8;
36513;PMS5003;66331;46.796;9.824;2023-02-15T09:01:27;9;8;
36513;PMS5003;66331;46.796;9.824;2023-02-15T09:03:56;9;8;
36513;PMS5003;66331;46.796;9.824;2023-02-15T09:06:25;12;9;
36513;PMS5003;66331;46.796;9.824;2023-02-15T09:08:53;9;7;
36513;PMS5003;66331;46.796;9.824;2023-02-15T09:11:22;4;4;
36513;PMS5003;66331;46.796;9.824;2023-02-15T09:13:51;4;4;
36513;PMS5003;66331;46.796;9.824;2023-02-15T09:16:20;6;4;
36513;PMS5003;66331;46.796;9.824;2023-02-15T09:18:48;4;4;
36513;PMS5003;66331;46.796;9.824;2023-02-15T09:21:18;8;7;
36513;PMS5003;66331;46.796;9.824;2023-02-15T09:23:47;4;4;
36513;PMS5003;66331;46.796;9.824;2023-02-15T09:26:16;7;5;
36513;PMS5003;66331;46.796;9.824;2023-02-15T09:28:45;5;5;
36513;PMS5003;66331;46.796;9.824;2023-02-15T09:31:14;5;4;
36513;PMS5003;66331;46.796;9.824;2023-02-15T09:33:43;2;2;
36513;PMS5003;66331;46.796;9.824;2023-02-15T09:36:14;4;4;
36513;PMS5003;66331;46.796;9.824;2023-02-15T09:38:43;4;4;
36513;PMS5003;66331;46.796;9.824;2023-02-15T09:41:16;3;3;
36513;PMS5003;66331;46.796;9.824;2023-02-15T09:43:59;6;5;
36513;PMS5003;66331;46.796;9.824;2023-02-15T09:46:38;5;4;
36513;PMS5003;66331;46.796;9.824;2023-02-15T09:49:21;4;4;
36513;PMS5003;66331;46.796;9.824;2023-02-15T09:52:02;5;5;
36513;PMS5003;66331;46.796;9.824;2023-02-15T09:54:49;4;4;
36513;PMS5003;66331;46.796;9.824;2023-02-15T09:57:27;2;2;
36513;PMS5003;66331;46.796;9.824;2023-02-15T10:00:05;2;2;
36513;PMS5003;66331;46.796;9.824;2023-02-15T10:02:44;2;2;
36513;PMS5003;66331;46.796;9.824;2023-02-15T10:05:26;9;5;
36513;PMS5003;66331;46.796;9.824;2023-02-15T10:08:16;3;2;
36513;PMS5003;66331;46.796;9.824;2023-02-15T10:11:02;13;13;
36513;PMS5003;66331;46.796;9.824;2023-02-15T10:13:39;22;22;
36513;PMS5003;66331;46.796;9.824;2023-02-15T10:16:18;39;39;
36513;PMS5003;66331;46.796;9.824;2023-02-15T10:18:55;33;33;
36513;PMS5003;66331;46.796;9.824;2023-02-15T10:21:32;26;26;
36513;PMS5003;66331;46.796;9.824;2023-02-15T10:24:16;13;13;
36513;PMS5003;66331;46.796;9.824;2023-02-15T10:27:00;2;2;
36513;PMS5003;66331;46.796;9.824;2023-02-15T10:29:34;0;0;
36513;PMS5003;66331;46.796;9.824;2023-02-15T10:32:05;1;0;
36513;PMS5003;66331;46.796;9.824;2023-02-15T10:34:44;0;0;
36513;PMS5003;66331;46.796;9.824;2023-02-15T10:37:22;0;0;
36513;PMS5003;66331;46.796;9.824;2023-02-15T10:40:36;0;0;
36513;PMS5003;66331;46.796;9.824;2023-02-15T10:43:14;0;0;
36513;PMS5003;66331;46.796;9.824;2023-02-15T10:45:55;0;0;
36513;PMS5003;66331;46.796;9.824;2023-02-15T10:48:34;0;0;
36513;PMS5003;66331;46.796;9.824;2023-02-15T10:51:14;0;0;
36513;PMS5003;66331;46.796;9.824;2023-02-15T10:53:52;1;1;
36513;PMS5003;66331;46.796;9.824;2023-02-15T10:56:31;1;1;
36513;PMS5003;66331;46.796;9.824;2023-02-15T10:59:06;0;0;
36513;PMS5003;66331;46.796;9.824;2023-02-15T11:01:46;1;1;
36513;PMS5003;66331;46.796;9.824;2023-02-15T11:04:37;0;0;
36513;PMS5003;66331;46.796;9.824;2023-02-15T11:07:14;0;0;
36513;PMS5003;66331;46.796;9.824;2023-02-15T11:09:45;1;0;
36513;PMS5003;66331;46.796;9.824;2023-02-15T11:12:16;0;0;
36513;PMS5003;66331;46.796;9.824;2023-02-15T11:14:48;0;0;
36513;PMS5003;66331;46.796;9.824;2023-02-15T11:17:21;1;1;
36513;PMS5003;66331;46.796;9.824;2023-02-15T11:19:55;0;0;
36513;PMS5003;66331;46.796;9.824;2023-02-15T11:22:26;0;0;
36513;PMS5003;66331;46.796;9.824;2023-02-15T11:24:53;1;1;
36513;PMS5003;66331;46.796;9.824;2023-02-15T11:27:22;1;1;
36513;PMS5003;66331;46.796;9.824;2023-02-15T11:29:55;3;2;
36513;PMS5003;66331;46.796;9.824;2023-02-15T11:32:27;2;2;
36513;PMS5003;66331;46.796;9.824;2023-02-15T11:34:59;2;2;
36513;PMS5003;66331;46.796;9.824;2023-02-15T11:37:32;1;1;
36513;PMS5003;66331;46.796;9.824;2023-02-15T11:40:06;1;1;
36513;PMS5003;66331;46.796;9.824;2023-02-15T11:42:46;1;1;
36513;PMS5003;66331;46.796;9.824;2023-02-15T11:45:18;1;1;
36513;PMS5003;66331;46.796;9.824;2023-02-15T11:47:51;1;1;
36513;PMS5003;66331;46.796;9.824;2023-02-15T11:50:20;2;1;
36513;PMS5003;66331;46.796;9.824;2023-02-15T11:52:50;1;1;
36513;PMS5003;66331;46.796;9.824;2023-02-15T11:55:23;1;1;
36513;PMS5003;66331;46.796;9.824;2023-02-15T11:57:52;3;1;
36513;PMS5003;66331;46.796;9.824;2023-02-15T12:00:24;1;1;
36513;PMS5003;66331;46.796;9.824;2023-02-15T12:02:58;3;2;
36513;PMS5003;66331;46.796;9.824;2023-02-15T12:05:28;2;1;
36513;PMS5003;66331;46.796;9.824;2023-02-15T12:07:57;2;2;
36513;PMS5003;66331;46.796;9.824;2023-02-15T12:10:29;0;0;
36513;PMS5003;66331;46.796;9.824;2023-02-15T12:13:10;5;2;
36513;PMS5003;66331;46.796;9.824;2023-02-15T12:15:40;1;1;
36513;PMS5003;66331;46.796;9.824;2023-02-15T12:18:15;2;1;
36513;PMS5003;66331;46.796;9.824;2023-02-15T12:20:46;2;1;
36513;PMS5003;66331;46.796;9.824;2023-02-15T12:23:15;2;1;
36513;PMS5003;66331;46.796;9.824;2023-02-15T12:25:49;1;1;
36513;PMS5003;66331;46.796;9.824;2023-02-15T12:28:22;1;1;
36513;PMS5003;66331;46.796;9.824;2023-02-15T12:30:51;0;0;
36513;PMS5003;66331;46.796;9.824;2023-02-15T12:33:24;0;0;
36513;PMS5003;66331;46.796;9.824;2023-02-15T12:35:56;0;0;
36513;PMS5003;66331;46.796;9.824;2023-02-15T12:38:27;1;1;
36513;PMS5003;66331;46.796;9.824;2023-02-15T12:40:56;0;0;
36513;PMS5003;66331;46.796;9.824;2023-02-15T12:43:25;1;1;
36513;PMS5003;66331;46.796;9.824;2023-02-15T12:45:53;1;1;
36513;PMS5003;66331;46.796;9.824;2023-02-15T12:48:45;0;0;
36513;PMS5003;66331;46.796;9.824;2023-02-15T12:51:13;4;4;
36513;PMS5003;66331;46.796;9.824;2023-02-15T12:53:41;1;1;
36513;PMS5003;66331;46.796;9.824;2023-02-15T12:56:09;0;0;
36513;PMS5003;66331;46.796;9.824;2023-02-15T12:58:37;1;1;
36513;PMS5003;66331;46.796;9.824;2023-02-15T13:01:13;0;0;
36513;PMS5003;66331;46.796;9.824;2023-02-15T13:03:53;0;0;
36513;PMS5003;66331;46.796;9.824;2023-02-15T13:06:24;0;0;
36513;PMS5003;66331;46.796;9.824;2023-02-15T13:08:54;0;0;
36513;PMS5003;66331;46.796;9.824;2023-02-15T13:11:24;0;0;
36513;PMS5003;66331;46.796;9.824;2023-02-15T13:13:57;0;0;
36513;PMS5003;66331;46.796;9.824;2023-02-15T13:16:28;0;0;
36513;PMS5003;66331;46.796;9.824;2023-02-15T13:19:03;0;0;
36513;PMS5003;66331;46.796;9.824;2023-02-15T13:21:34;0;0;
36513;PMS5003;66331;46.796;9.824;2023-02-15T13:24:06;2;0;
36513;PMS5003;66331;46.796;9.824;2023-02-15T13:26:43;1;1;
36513;PMS5003;66331;46.796;9.824;2023-02-15T13:29:14;0;0;
36513;PMS5003;66331;46.796;9.824;2023-02-15T13:31:48;0;0;
36513;PMS5003;66331;46.796;9.824;2023-02-15T13:34:18;4;3;
36513;PMS5003;66331;46.796;9.824;2023-02-15T13:36:51;0;0;
36513;PMS5003;66331;46.796;9.824;2023-02-15T13:39:29;0;0;
36513;PMS5003;66331;46.796;9.824;2023-02-15T13:42:02;0;0;
36513;PMS5003;66331;46.796;9.824;2023-02-15T13:44:53;0;0;
36513;PMS5003;66331;46.796;9.824;2023-02-15T13:47:30;0;0;
36513;PMS5003;66331;46.796;9.824;2023-02-15T13:50:21;0;0;
36513;PMS5003;66331;46.796;9.824;2023-02-15T13:53:18;0;0;
36513;PMS5003;66331;46.796;9.824;2023-02-15T13:56:00;0;0;
36513;PMS5003;66331;46.796;9.824;2023-02-15T13:59:00;0;0;
36513;PMS5003;66331;46.796;9.824;2023-02-15T14:01:44;0;0;
36513;PMS5003;66331;46.796;9.824;2023-02-15T14:04:28;1;0;
36513;PMS5003;66331;46.796;9.824;2023-02-15T14:07:17;0;0;
36513;PMS5003;66331;46.796;9.824;2023-02-15T14:10:00;0;0;
36513;PMS5003;66331;46.796;9.824;2023-02-15T14:12:48;0;0;
36513;PMS5003;66331;46.796;9.824;2023-02-15T14:15:34;0;0;
36513;PMS5003;66331;46.796;9.824;2023-02-15T14:18:12;0;0;
36513;PMS5003;66331;46.796;9.824;2023-02-15T14:20:51;0;0;
36513;PMS5003;66331;46.796;9.824;2023-02-15T14:23:32;0;0;
36513;PMS5003;66331;46.796;9.824;2023-02-15T14:26:14;0;0;
36513;PMS5003;66331;46.796;9.824;2023-02-15T14:28:49;2;1;
36513;PMS5003;66331;46.796;9.824;2023-02-15T14:31:23;1;0;
36513;PMS5003;66331;46.796;9.824;2023-02-15T14:33:57;2;1;
36513;PMS5003;66331;46.796;9.824;2023-02-15T14:36:24;0;0;
36513;PMS5003;66331;46.796;9.824;2023-02-15T14:38:57;0;0;
36513;PMS5003;66331;46.796;9.824;2023-02-15T14:41:36;0;0;
36513;PMS5003;66331;46.796;9.824;2023-02-15T14:44:08;0;0;
36513;PMS5003;66331;46.796;9.824;2023-02-15T14:46:44;1;1;
36513;PMS5003;66331;46.796;9.824;2023-02-15T14:49:17;0;0;
36513;PMS5003;66331;46.796;9.824;2023-02-15T14:51:58;0;0;
36513;PMS5003;66331;46.796;9.824;2023-02-15T14:55:11;0;0;
36513;PMS5003;66331;46.796;9.824;2023-02-15T14:58:01;0;0;
36513;PMS5003;66331;46.796;9.824;2023-02-15T15:00:30;0;0;
36513;PMS5003;66331;46.796;9.824;2023-02-15T15:03:03;1;0;
36513;PMS5003;66331;46.796;9.824;2023-02-15T15:05:46;0;0;
36513;PMS5003;66331;46.796;9.824;2023-02-15T15:08:21;0;0;
36513;PMS5003;66331;46.796;9.824;2023-02-15T15:10:53;0;0;
36513;PMS5003;66331;46.796;9.824;2023-02-15T15:13:37;1;0;
36513;PMS5003;66331;46.796;9.824;2023-02-15T15:17:41;0;0;
36513;PMS5003;66331;46.796;9.824;2023-02-15T15:20:39;0;0;
36513;PMS5003;66331;46.796;9.824;2023-02-15T15:23:42;0;0;
36513;PMS5003;66331;46.796;9.824;2023-02-15T15:26:27;0;0;
36513;PMS5003;66331;46.796;9.824;2023-02-15T15:28:58;1;1;
36513;PMS5003;66331;46.796;9.824;2023-02-15T15:31:38;0;0;
36513;PMS5003;66331;46.796;9.824;2023-02-15T15:34:19;0;0;
36513;PMS5003;66331;46.796;9.824;2023-02-15T15:37:02;0;0;
36513;PMS5003;66331;46.796;9.824;2023-02-15T15:41:10;0;0;
36513;PMS5003;66331;46.796;9.824;2023-02-15T15:43:51;2;2;
36513;PMS5003;66331;46.796;9.824;2023-02-15T15:46:37;0;0;
36513;PMS5003;66331;46.796;9.824;2023-02-15T15:49:14;1;0;
36513;PMS5003;66331;46.796;9.824;2023-02-15T15:51:44;3;3;
36513;PMS5003;66331;46.796;9.824;2023-02-15T15:54:14;1;1;
36513;PMS5003;66331;46.796;9.824;2023-02-15T15:56:45;2;1;
36513;PMS5003;66331;46.796;9.824;2023-02-15T15:59:17;2;1;
36513;PMS5003;66331;46.796;9.824;2023-02-15T16:01:47;0;0;
36513;PMS5003;66331;46.796;9.824;2023-02-15T16:04:22;0;0;
36513;PMS5003;66331;46.796;9.824;2023-02-15T16:06:51;2;1;
36513;PMS5003;66331;46.796;9.824;2023-02-15T16:09:24;2;1;
36513;PMS5003;66331;46.796;9.824;2023-02-15T16:11:53;2;2;
36513;PMS5003;66331;46.796;9.824;2023-02-15T16:14:25;2;2;
36513;PMS5003;66331;46.796;9.824;2023-02-15T16:16:56;4;2;
36513;PMS5003;66331;46.796;9.824;2023-02-15T16:19:26;2;2;
36513;PMS5003;66331;46.796;9.824;2023-02-15T16:21:59;3;2;
36513;PMS5003;66331;46.796;9.824;2023-02-15T16:24:36;2;2;
36513;PMS5003;66331;46.796;9.824;2023-02-15T16:27:12;3;3;
36513;PMS5003;66331;46.796;9.824;2023-02-15T16:30:19;3;3;
36513;PMS5003;66331;46.796;9.824;2023-02-15T16:30:26;3;3;
36513;PMS5003;66331;46.796;9.824;2023-02-15T16:33:02;9;7;
36513;PMS5003;66331;46.796;9.824;2023-02-15T16:35:32;5;4;
36513;PMS5003;66331;46.796;9.824;2023-02-15T16:38:00;5;4;
36513;PMS5003;66331;46.796;9.824;2023-02-15T16:40:33;3;3;
36513;PMS5003;66331;46.796;9.824;2023-02-15T16:43:10;4;4;
36513;PMS5003;66331;46.796;9.824;2023-02-15T16:45:42;3;3;
36513;PMS5003;66331;46.796;9.824;2023-02-15T16:48:11;4;4;
36513;PMS5003;66331;46.796;9.824;2023-02-15T16:50:45;4;4;
36513;PMS5003;66331;46.796;9.824;2023-02-15T16:53:17;6;4;
36513;PMS5003;66331;46.796;9.824;2023-02-15T16:55:48;11;8;
36513;PMS5003;66331;46.796;9.824;2023-02-15T16:58:20;5;4;
36513;PMS5003;66331;46.796;9.824;2023-02-15T17:00:54;4;4;
36513;PMS5003;66331;46.796;9.824;2023-02-15T17:03:24;4;4;
36513;PMS5003;66331;46.796;9.824;2023-02-15T17:05:53;5;5;
36513;PMS5003;66331;46.796;9.824;2023-02-15T17:08:24;8;7;
36513;PMS5003;66331;46.796;9.824;2023-02-15T17:11:32;4;4;
36513;PMS5003;66331;46.796;9.824;2023-02-15T17:14:36;4;4;
36513;PMS5003;66331;46.796;9.824;2023-02-15T17:17:05;4;4;
36513;PMS5003;66331;46.796;9.824;2023-02-15T17:19:40;7;6;
36513;PMS5003;66331;46.796;9.824;2023-02-15T17:22:17;9;6;
36513;PMS5003;66331;46.796;9.824;2023-02-15T17:24:46;3;3;
36513;PMS5003;66331;46.796;9.824;2023-02-15T17:27:26;3;3;